الصفحة الرئيسية
METAR-TAF:

METAR-TAF

مطار :

Kimmirut, نونافوت, كندا

دائرة عرض: 62-51N, خط طول: 069-53W, ارتفاع: 53 متر

مراقبة الطقس الحالي

تاريخ ووقت الإصدار 23ساعات و 2 دقيقة قبل الساعة 19:00UTC
ريح 3 عقدة من الجنوب/الجنوب الشرقي
درجة الحرارة 5°درجة مئوية
الرطوبة 93%
ضغط 997 hPa
الرؤية: 0.6 كم
ملبد بالغيوم على ارتفاع 300 قدم
مطر خفيف, ضباب

METAR: CYLC 141900Z 16003KT 3/8SM -RA FG OVC003 05/04 A2944 RMK FG6ST2 LSTSTFD OBS/NXT 171100Z SLP973

زمن: 14:02 (18:02 UTC)


TAF: مفقودة

أرصاد الطقس والتوقعات من أكثر من 4000 مطار (تقارير الطقس للمطار METAR والتنبؤ بالطقس بالمطارTAF).

المحطات المتاحة هي النقط الصفراء والحمراء على الخريطة.

حرك المؤشر فوق النقطة لمعرفة اسم المحطة.

ثم انقر لمعرفة أرصاد وتوقعات الطقس.

لتغيير الخارطة: اضغط على الأزرار الخضراء مع رمز الصليب الأسود للتكبير. على الزر الأخضر مع شرطة للتصغير، أو على الأسهم الخضراء للخرائط المجاورة.


METAR-TAF: